Time;durP1;ratioP1;P1;durP2;ratioP2;P2;SDS_P1;SDS_P2;PMS_P1;PMS_P2;Temp;Humidity;BMP_temperature;BMP_pressure;BME280_temperature;BME280_humidity;BME280_pressure;Samples;Min_cycle;Max_cycle;Signal;HPM_P1;HPM_P2
2022/11/20 00:00:18;;;;;;;9.97;5.73;;;;;;;0.37;100.00;100370.19;5002770;28;20544;-81
2022/11/20 00:02:45;;;;;;;10.80;5.93;;;;;;;0.37;100.00;100358.91;5002588;28;20053;-81
2022/11/20 00:05:11;;;;;;;11.43;6.57;;;;;;;0.40;100.00;100366.75;4987616;28;20071;-81
2022/11/20 00:07:38;;;;;;;10.50;6.20;;;;;;;0.40;100.00;100353.75;4967982;28;20046;-81
2022/11/20 00:10:05;;;;;;;12.00;7.07;;;;;;;0.30;100.00;100355.34;4983503;28;20054;-81
2022/11/20 00:12:32;;;;;;;11.43;6.37;;;;;;;0.42;100.00;100347.75;4991649;28;20073;-81
2022/11/20 00:14:59;;;;;;;11.57;6.57;;;;;;;0.33;100.00;100357.97;5014244;28;20042;-81
2022/11/20 00:17:25;;;;;;;12.37;6.93;;;;;;;0.35;100.00;100358.00;4983054;28;20050;-82
2022/11/20 00:19:52;;;;;;;12.30;7.40;;;;;;;0.39;100.00;100362.41;5003012;28;20041;-81
2022/11/20 00:22:19;;;;;;;12.23;7.00;;;;;;;0.39;100.00;100363.28;5001376;28;20140;-82
2022/11/20 00:24:45;;;;;;;12.77;7.40;;;;;;;0.39;100.00;100365.88;4993833;28;20045;-81
2022/11/20 00:27:13;;;;;;;13.60;7.73;;;;;;;0.50;100.00;100364.31;4999235;28;20045;-81
2022/11/20 00:29:39;;;;;;;14.83;8.20;;;;;;;0.48;100.00;100355.63;4986205;28;20103;-80
2022/11/20 00:32:06;;;;;;;14.30;7.40;;;;;;;0.40;100.00;100356.34;4998471;28;20063;-81
2022/11/20 00:34:33;;;;;;;17.33;9.27;;;;;;;0.43;100.00;100367.69;5032422;28;20068;-80
2022/11/20 00:36:59;;;;;;;15.17;8.17;;;;;;;0.26;100.00;100359.63;4980950;28;20037;-80
2022/11/20 00:39:27;;;;;;;15.63;8.93;;;;;;;0.38;100.00;100353.72;4997299;28;20479;-81
2022/11/20 00:41:53;;;;;;;15.07;8.47;;;;;;;0.45;100.00;100365.09;5012967;28;20037;-81
2022/11/20 00:44:20;;;;;;;15.10;8.40;;;;;;;0.41;100.00;100358.09;5016286;28;20048;-81
2022/11/20 00:46:46;;;;;;;21.77;9.93;;;;;;;0.41;100.00;100360.69;4996765;28;20045;-81
2022/11/20 00:49:13;;;;;;;17.30;10.30;;;;;;;0.42;100.00;100355.53;5000562;28;20033;-80
2022/11/20 00:51:40;;;;;;;17.87;9.60;;;;;;;0.44;100.00;100363.34;5011214;28;20522;-81
2022/11/20 00:54:06;;;;;;;18.23;10.17;;;;;;;0.46;100.00;100362.53;5029497;28;20079;-81
2022/11/20 00:56:33;;;;;;;17.30;8.87;;;;;;;0.32;100.00;100370.94;4995832;28;20060;-80
2022/11/20 00:59:03;;;;;;;17.93;10.20;;;;;;;0.42;100.00;100370.22;4996668;28;20037;-80
2022/11/20 01:01:30;;;;;;;20.80;11.03;;;;;;;0.45;100.00;100371.16;4989066;28;20037;-80
2022/11/20 01:03:59;;;;;;;20.93;10.63;;;;;;;0.44;100.00;100363.34;4993866;28;20045;-79
2022/11/20 01:06:31;;;;;;;20.57;10.97;;;;;;;0.39;100.00;100370.19;4996825;28;20049;-80
2022/11/20 01:08:59;;;;;;;20.23;10.43;;;;;;;0.47;100.00;100371.19;4982811;28;20037;-80
2022/11/20 01:11:28;;;;;;;17.53;9.70;;;;;;;0.42;100.00;100368.53;5010652;28;20049;-80
2022/11/20 01:13:56;;;;;;;21.07;10.00;;;;;;;0.38;100.00;100361.53;5004891;28;20084;-80
2022/11/20 01:16:28;;;;;;;20.97;10.80;;;;;;;0.30;100.00;100365.72;4981442;28;20051;-79
2022/11/20 01:18:57;;;;;;;22.40;11.00;;;;;;;0.25;100.00;100368.25;4992525;28;20046;-80
2022/11/20 01:21:26;;;;;;;19.70;10.40;;;;;;;0.42;100.00;100363.34;5056425;22;20431;-79
2022/11/20 01:23:53;;;;;;;19.33;10.07;;;;;;;0.40;100.00;100365.00;5050842;22;20036;-79
2022/11/20 01:26:23;;;;;;;21.47;11.47;;;;;;;0.31;100.00;100353.59;5026154;23;20048;-79
2022/11/20 01:28:50;;;;;;;21.17;11.57;;;;;;;0.36;100.00;100349.38;5020181;28;20033;-81
2022/11/20 01:31:36;;;;;;;22.73;11.47;;;;;;;0.24;100.00;100344.84;5035192;28;20474;-80
2022/11/20 01:34:13;;;;;;;17.97;11.03;;;;;;;0.38;100.00;100363.25;4995894;28;20045;-79
2022/11/20 01:36:40;;;;;;;23.97;10.90;;;;;;;0.35;100.00;100353.69;5005779;28;20075;-79
2022/11/20 01:39:11;;;;;;;20.57;10.73;;;;;;;0.30;100.00;100349.25;4996840;28;20460;-80
2022/11/20 01:44:49;;;;;;;21.30;10.90;;;;;;;0.37;100.00;100344.19;5033166;28;20056;-80
2022/11/20 01:47:20;;;;;;;25.93;11.77;;;;;;;0.40;100.00;100338.16;5026961;28;20203;-79
2022/11/20 01:49:51;;;;;;;20.63;11.27;;;;;;;0.33;100.00;100339.78;5015920;28;20044;-80
2022/11/20 01:52:21;;;;;;;22.30;11.23;;;;;;;0.26;100.00;100335.38;5001763;28;20040;-80
2022/11/20 01:54:59;;;;;;;22.57;11.00;;;;;;;0.41;100.00;100332.97;5011768;28;20379;-80
2022/11/20 01:57:28;;;;;;;22.70;11.77;;;;;;;0.42;100.00;100328.66;5027160;28;20071;-79
2022/11/20 02:00:00;;;;;;;18.40;9.73;;;;;;;0.35;100.00;100332.03;4998495;28;20041;-80
2022/11/20 02:02:26;;;;;;;22.00;10.77;;;;;;;0.36;100.00;100336.38;5027913;28;20052;-79
2022/11/20 02:04:56;;;;;;;23.27;12.37;;;;;;;0.34;100.00;100332.84;5030595;28;20127;-79
2022/11/20 02:07:23;;;;;;;21.27;11.17;;;;;;;0.31;100.00;100338.00;5015381;28;20103;-79
2022/11/20 02:09:51;;;;;;;21.73;11.17;;;;;;;0.36;100.00;100319.06;4999610;28;20132;-80
2022/11/20 02:15:09;;;;;;;19.07;11.00;;;;;;;0.36;100.00;100329.44;5029138;28;20041;-80
2022/11/20 02:17:36;;;;;;;20.97;11.00;;;;;;;0.38;100.00;100332.94;5033687;28;20052;-79
2022/11/20 02:20:03;;;;;;;22.17;11.70;;;;;;;0.36;100.00;100333.78;5045979;28;20068;-80
2022/11/20 02:22:38;;;;;;;22.37;10.97;;;;;;;0.32;100.00;100325.03;5029157;28;20111;-80
2022/11/20 02:25:06;;;;;;;22.43;11.37;;;;;;;0.26;100.00;100330.16;5025680;28;20037;-80
2022/11/20 02:27:34;;;;;;;22.80;10.40;;;;;;;0.21;100.00;100321.41;5014788;28;20404;-80
2022/11/20 02:30:07;;;;;;;21.67;10.97;;;;;;;0.27;100.00;100322.38;4998214;28;20703;-81
2022/11/20 02:32:35;;;;;;;23.63;12.63;;;;;;;0.33;100.00;100318.13;5015531;28;20469;-80
2022/11/20 02:35:17;;;;;;;21.10;10.80;;;;;;;0.41;100.00;100321.72;5029329;28;20041;-81
2022/11/20 02:37:45;;;;;;;18.27;9.90;;;;;;;0.36;100.00;100316.47;5013863;28;20489;-80
2022/11/20 02:40:11;;;;;;;18.87;10.83;;;;;;;0.24;100.00;100321.44;5012689;28;20066;-80
2022/11/20 02:42:38;;;;;;;16.17;9.40;;;;;;;0.37;100.00;100319.94;5014280;28;20390;-80
2022/11/20 02:45:05;;;;;;;15.90;9.27;;;;;;;0.31;100.00;100320.69;5030668;28;20486;-80
2022/11/20 02:47:32;;;;;;;18.37;9.37;;;;;;;0.39;100.00;100319.09;5029667;28;20120;-81
2022/11/20 02:49:59;;;;;;;16.60;9.57;;;;;;;0.42;100.00;100326.06;5012540;28;20033;-82
2022/11/20 02:52:26;;;;;;;17.60;9.80;;;;;;;0.35;100.00;100319.03;5013037;28;20049;-81
2022/11/20 02:54:52;;;;;;;18.23;10.37;;;;;;;0.25;100.00;100318.91;4995007;28;20537;-80
2022/11/20 02:57:19;;;;;;;17.67;9.70;;;;;;;0.40;100.00;100310.44;5015404;28;20107;-81
2022/11/20 02:59:46;;;;;;;16.70;9.17;;;;;;;0.30;100.00;100305.97;5015664;28;20659;-80
2022/11/20 03:02:12;;;;;;;17.47;9.17;;;;;;;0.27;100.00;100308.53;5034251;28;20104;-81
2022/11/20 03:04:39;;;;;;;16.10;8.90;;;;;;;0.30;100.00;100312.88;5017140;28;20043;-80
2022/11/20 03:07:05;;;;;;;16.70;8.97;;;;;;;0.24;100.00;100308.47;5013923;28;20041;-81
2022/11/20 03:09:32;;;;;;;17.67;9.40;;;;;;;0.19;100.00;100310.13;5029583;28;20119;-81
2022/11/20 03:11:59;;;;;;;19.83;10.33;;;;;;;0.31;100.00;100309.44;5046917;28;20041;-82
2022/11/20 03:14:25;;;;;;;17.97;10.37;;;;;;;0.29;100.00;100309.41;5007710;28;20132;-81
2022/11/20 03:16:52;;;;;;;19.37;11.33;;;;;;;0.31;100.00;100301.63;5027464;28;20239;-81
2022/11/20 03:19:19;;;;;;;20.40;11.00;;;;;;;0.30;100.00;100308.56;5011929;28;20045;-80
2022/11/20 03:21:46;;;;;;;20.17;10.93;;;;;;;0.36;100.00;100310.38;5029999;28;20555;-82
2022/11/20 03:24:13;;;;;;;18.57;10.90;;;;;;;0.32;100.00;100306.84;5032326;28;20045;-82
2022/11/20 03:26:40;;;;;;;19.27;11.37;;;;;;;0.35;100.00;100304.31;5029953;28;20091;-82
2022/11/20 03:29:06;;;;;;;20.17;10.93;;;;;;;0.37;100.00;100296.53;5012173;28;20037;-82
2022/11/20 03:31:35;;;;;;;20.97;11.20;;;;;;;0.35;100.00;100299.13;4997369;28;20501;-82
2022/11/20 03:34:02;;;;;;;21.23;11.93;;;;;;;0.37;100.00;100301.75;5007135;28;20037;-82
2022/11/20 03:36:29;;;;;;;20.47;11.80;;;;;;;0.30;100.00;100303.38;5032697;28;20033;-81
2022/11/20 03:38:56;;;;;;;23.50;12.03;;;;;;;0.37;100.00;100292.22;5009302;28;20113;-81
2022/11/20 03:41:28;;;;;;;22.13;11.80;;;;;;;0.48;100.00;100295.84;5011790;28;20041;-81
2022/11/20 03:44:00;;;;;;;22.30;11.80;;;;;;;0.25;100.00;100289.41;5009382;28;20135;-82
2022/11/20 03:46:27;;;;;;;22.70;12.90;;;;;;;0.19;100.00;100290.22;5015098;28;20087;-82
2022/11/20 03:48:54;;;;;;;22.13;10.70;;;;;;;0.23;100.00;100285.94;5012457;28;20044;-81
2022/11/20 03:51:22;;;;;;;23.43;12.93;;;;;;;0.26;100.00;100286.88;5032720;28;20033;-82
2022/11/20 03:53:50;;;;;;;20.43;11.47;;;;;;;0.23;100.00;100296.31;5006849;28;20041;-80
2022/11/20 03:56:18;;;;;;;25.67;12.00;;;;;;;0.19;100.00;100294.53;5015536;28;20045;-81
2022/11/20 03:58:45;;;;;;;22.40;10.97;;;;;;;0.20;100.00;100286.78;5033828;28;20090;-81
2022/11/20 04:01:17;;;;;;;20.77;11.07;;;;;;;0.35;100.00;100296.53;5010265;28;20474;-81
2022/11/20 04:03:45;;;;;;;22.00;10.93;;;;;;;0.24;100.00;100296.34;5015907;28;20132;-81
2022/11/20 04:06:14;;;;;;;24.40;11.67;;;;;;;0.43;100.00;100294.91;5036278;28;20052;-83
2022/11/20 04:08:42;;;;;;;21.67;10.80;;;;;;;0.40;100.00;100288.78;5018882;28;20519;-82
2022/11/20 04:11:12;;;;;;;22.03;11.70;;;;;;;0.33;100.00;100280.00;5018099;28;20482;-83
2022/11/20 04:13:40;;;;;;;20.40;10.80;;;;;;;0.26;100.00;100279.06;5033662;28;20059;-82
2022/11/20 04:16:08;;;;;;;20.77;11.27;;;;;;;0.23;100.00;100280.75;4998376;28;20490;-83
2022/11/20 04:18:35;;;;;;;24.43;12.07;;;;;;;0.19;100.00;100279.84;5018515;28;20398;-82
2022/11/20 04:21:03;;;;;;;20.67;10.80;;;;;;;0.17;100.00;100281.53;5035606;28;20545;-81
2022/11/20 04:23:30;;;;;;;21.53;11.37;;;;;;;0.21;100.00;100283.31;5025221;28;20041;-81
2022/11/20 04:26:10;;;;;;;21.07;11.70;;;;;;;0.30;100.00;100279.13;5018365;28;20099;-81
2022/11/20 04:28:37;;;;;;;21.77;11.50;;;;;;;0.26;100.00;100270.41;5036021;28;20052;-81
2022/11/20 04:31:09;;;;;;;22.77;10.90;;;;;;;0.23;100.00;100267.75;5010199;28;20037;-83
2022/11/20 04:33:37;;;;;;;25.33;12.17;;;;;;;0.23;100.00;100276.41;5019928;28;20050;-81
2022/11/20 04:36:12;;;;;;;25.10;12.03;;;;;;;0.20;100.00;100276.38;5051720;28;20429;-82
2022/11/20 04:38:40;;;;;;;22.30;12.20;;;;;;;0.27;100.00;100274.75;5019078;28;20052;-81
2022/11/20 04:41:08;;;;;;;22.40;12.33;;;;;;;0.25;100.00;100272.13;5035215;28;20048;-81
2022/11/20 04:43:35;;;;;;;22.57;12.67;;;;;;;0.17;100.00;100276.34;5018250;28;20099;-81
2022/11/20 04:46:01;;;;;;;22.63;12.67;;;;;;;0.31;100.00;100263.53;5030251;28;20044;-81
2022/11/20 04:48:29;;;;;;;23.23;12.83;;;;;;;0.37;100.00;100268.84;5034071;28;20494;-81
2022/11/20 04:50:56;;;;;;;21.90;11.87;;;;;;;0.28;100.00;100269.56;5017811;28;20116;-80
2022/11/20 04:53:23;;;;;;;23.63;11.90;;;;;;;0.25;100.00;100274.75;5016067;28;20037;-81
2022/11/20 04:55:50;;;;;;;23.23;11.87;;;;;;;0.27;100.00;100266.97;5015258;28;20761;-82
2022/11/20 04:58:16;;;;;;;24.30;12.53;;;;;;;0.26;100.00;100280.81;5010728;28;20452;-82
2022/11/20 05:00:43;;;;;;;26.63;13.23;;;;;;;0.34;100.00;100275.69;5017723;28;20048;-80
2022/11/20 05:03:10;;;;;;;25.53;12.83;;;;;;;0.32;100.00;100274.81;5022803;28;20052;-81
2022/11/20 05:05:36;;;;;;;20.97;11.93;;;;;;;0.23;100.00;100273.81;5030922;28;20033;-80
2022/11/20 05:08:03;;;;;;;20.20;11.77;;;;;;;0.27;100.00;100269.56;5000079;28;20041;-81
2022/11/20 05:10:30;;;;;;;22.67;12.03;;;;;;;0.26;100.00;100266.09;5028974;28;20437;-80
2022/11/20 05:12:56;;;;;;;24.33;12.80;;;;;;;0.25;100.00;100272.13;5013977;28;20087;-81
2022/11/20 05:15:26;;;;;;;21.20;11.47;;;;;;;0.20;100.00;100267.72;5029387;28;20048;-80
2022/11/20 05:17:53;;;;;;;21.67;12.37;;;;;;;0.21;100.00;100266.84;5011871;28;20044;-80
2022/11/20 05:20:19;;;;;;;21.33;12.10;;;;;;;0.17;100.00;100270.25;5026924;28;20069;-81
2022/11/20 05:22:46;;;;;;;22.77;12.47;;;;;;;0.17;100.00;100267.66;5014180;28;20038;-79
2022/11/20 05:25:13;;;;;;;24.10;12.43;;;;;;;0.11;100.00;100260.66;5032891;28;20501;-82
2022/11/20 05:27:39;;;;;;;23.57;13.03;;;;;;;0.13;100.00;100263.28;5000419;28;20032;-79
2022/11/20 05:30:06;;;;;;;26.30;13.77;;;;;;;0.24;100.00;100267.75;5014860;28;20498;-79
2022/11/20 05:32:33;;;;;;;25.03;13.23;;;;;;;0.30;100.00;100260.94;5049170;28;20494;-80
2022/11/20 05:34:59;;;;;;;21.60;13.40;;;;;;;0.24;100.00;100253.91;5013096;28;20061;-81
2022/11/20 05:37:26;;;;;;;22.07;12.70;;;;;;;0.18;100.00;100257.31;5031565;28;20064;-80
2022/11/20 05:39:53;;;;;;;25.07;13.33;;;;;;;0.17;100.00;100252.97;5021382;28;20033;-79
2022/11/20 05:42:31;;;;;;;21.63;12.87;;;;;;;0.16;100.00;100250.31;5014569;28;20091;-80
2022/11/20 05:44:59;;;;;;;26.90;13.87;;;;;;;0.14;100.00;100254.63;5015876;28;20045;-80
2022/11/20 05:47:31;;;;;;;24.47;13.07;;;;;;;0.19;100.00;100246.06;5014241;28;20068;-82
2022/11/20 05:49:58;;;;;;;26.83;13.43;;;;;;;0.21;100.00;100246.94;5002462;28;20489;-80
2022/11/20 05:52:24;;;;;;;22.07;12.70;;;;;;;0.13;100.00;100237.28;5033279;28;20095;-80
2022/11/20 05:54:51;;;;;;;24.83;12.50;;;;;;;0.06;100.00;100231.13;5000248;28;20053;-81
2022/11/20 05:57:18;;;;;;;22.73;12.13;;;;;;;0.06;100.00;100235.44;4999980;28;20494;-82
2022/11/20 05:59:44;;;;;;;22.97;12.50;;;;;;;0.06;100.00;100241.53;5014857;28;20409;-82
2022/11/20 06:02:11;;;;;;;21.00;12.43;;;;;;;0.04;100.00;100243.22;5034209;28;20049;-81
2022/11/20 06:04:38;;;;;;;20.47;12.23;;;;;;;0.11;100.00;100242.47;5029439;28;20065;-82
2022/11/20 06:07:06;;;;;;;25.27;13.23;;;;;;;0.09;100.00;100235.53;5014210;28;20037;-81
2022/11/20 06:09:33;;;;;;;22.73;13.00;;;;;;;0.10;100.00;100237.25;5033402;28;20040;-82
2022/11/20 06:11:59;;;;;;;23.33;13.03;;;;;;;0.10;100.00;100229.47;5012048;28;20046;-82
2022/11/20 06:14:26;;;;;;;24.60;13.27;;;;;;;0.06;100.00;100222.47;5012943;28;20037;-81
2022/11/20 06:16:53;;;;;;;22.23;11.30;;;;;;;-0.03;100.00;100231.00;5032105;28;20097;-81
2022/11/20 06:19:19;;;;;;;24.07;13.83;;;;;;;0.02;100.00;100236.28;5022013;28;20089;-80
2022/11/20 06:21:48;;;;;;;24.23;12.67;;;;;;;0.06;100.00;100230.25;5000275;28;20041;-82
2022/11/20 06:24:15;;;;;;;24.83;12.90;;;;;;;0.11;100.00;100234.69;5009538;28;20453;-82
2022/11/20 06:26:42;;;;;;;25.13;13.73;;;;;;;0.03;100.00;100233.69;5018099;28;20037;-82
2022/11/20 06:29:09;;;;;;;23.70;12.67;;;;;;;-0.07;100.00;100240.47;5031348;28;20506;-83
2022/11/20 06:31:37;;;;;;;26.23;14.87;;;;;;;-0.06;100.00;100238.75;5026762;28;20057;-83
2022/11/20 06:34:05;;;;;;;21.03;13.53;;;;;;;0.01;100.00;100238.00;5001947;28;20072;-81
2022/11/20 06:36:32;;;;;;;26.97;14.77;;;;;;;0.03;100.00;100251.00;5013445;28;20049;-79
2022/11/20 06:39:00;;;;;;;26.20;14.93;;;;;;;0.05;100.00;100246.69;5019324;28;20552;-82
2022/11/20 06:41:27;;;;;;;21.23;13.30;;;;;;;0.06;100.00;100238.06;5016001;28;20116;-81
2022/11/20 06:43:54;;;;;;;25.43;14.03;;;;;;;0.13;100.00;100237.28;4999409;28;20030;-80
2022/11/20 06:46:21;;;;;;;23.03;12.93;;;;;;;-0.03;100.00;100241.38;5029655;28;20054;-82
2022/11/20 06:48:48;;;;;;;30.47;16.80;;;;;;;-0.06;100.00;100237.03;4981651;28;20072;-80
2022/11/20 06:51:16;;;;;;;66.13;45.20;;;;;;;0.06;100.00;100240.66;5000359;28;20037;-81
2022/11/20 06:53:45;;;;;;;32.60;17.83;;;;;;;0.07;100.00;100232.00;5003529;28;20517;-80
2022/11/20 06:56:12;;;;;;;33.20;23.43;;;;;;;0.01;100.00;100238.00;4995084;28;20037;-80
2022/11/20 06:58:39;;;;;;;34.17;25.53;;;;;;;-0.07;100.00;100229.22;4997870;28;20064;-81
2022/11/20 07:01:09;;;;;;;23.47;14.30;;;;;;;-0.07;100.00;100234.41;4982296;28;20038;-79
2022/11/20 07:03:36;;;;;;;23.60;14.80;;;;;;;-0.03;100.00;100231.00;5020688;28;20049;-82
2022/11/20 07:06:04;;;;;;;27.40;17.60;;;;;;;-0.02;100.00;100228.41;5001641;28;20055;-80
2022/11/20 07:08:30;;;;;;;25.23;14.97;;;;;;;0.01;100.00;100230.22;5001476;28;20095;-81
2022/11/20 07:11:02;;;;;;;23.23;12.53;;;;;;;-0.16;100.00;100223.88;5002153;28;20064;-79
2022/11/20 07:13:29;;;;;;;25.67;13.10;;;;;;;-0.12;100.00;100231.72;5016964;28;20037;-80
2022/11/20 07:16:01;;;;;;;26.77;14.77;;;;;;;-0.12;100.00;100231.72;5031447;28;20080;-80
2022/11/20 07:18:28;;;;;;;24.57;13.10;;;;;;;0.03;100.00;100230.22;5003275;28;20091;-80
2022/11/20 07:20:54;;;;;;;26.93;14.03;;;;;;;0.00;100.00;100225.88;4998156;28;20084;-79
2022/11/20 07:23:21;;;;;;;25.23;14.10;;;;;;;0.03;100.00;100230.22;5014915;28;20048;-80
2022/11/20 07:25:48;;;;;;;27.67;14.20;;;;;;;0.02;100.00;100223.28;5009238;28;20041;-79
2022/11/20 07:28:15;;;;;;;25.80;13.20;;;;;;;-0.07;100.00;100230.09;5035635;28;20041;-79
2022/11/20 07:30:41;;;;;;;25.07;13.73;;;;;;;-0.04;100.00;100221.47;5022753;28;20048;-83
2022/11/20 07:33:08;;;;;;;25.63;14.47;;;;;;;-0.06;100.00;100213.66;5028018;28;20045;-81
2022/11/20 07:35:35;;;;;;;35.80;24.70;;;;;;;-0.09;100.00;100220.50;5022309;28;20461;-82
2022/11/20 07:38:02;;;;;;;27.30;18.50;;;;;;;-0.09;100.00;100221.38;5048502;28;20043;-81
2022/11/20 07:40:29;;;;;;;31.30;18.87;;;;;;;0.04;100.00;100217.25;5014810;28;20487;-80
2022/11/20 07:42:56;;;;;;;29.00;16.77;;;;;;;0.05;100.00;100218.13;5036429;28;20450;-80
2022/11/20 07:45:23;;;;;;;25.30;13.97;;;;;;;0.07;100.00;100221.63;5047773;28;20257;-81
2022/11/20 07:47:53;;;;;;;24.80;15.00;;;;;;;-0.06;100.00;100226.63;5039736;28;20384;-79
2022/11/20 07:50:20;;;;;;;27.80;15.00;;;;;;;-0.15;100.00;100223.91;5011142;28;20056;-80
2022/11/20 07:52:47;;;;;;;28.30;16.13;;;;;;;-0.19;100.00;100222.09;5037808;28;20043;-80
2022/11/20 07:55:14;;;;;;;29.23;15.00;;;;;;;-0.18;100.00;100222.97;5031801;28;20490;-79
2022/11/20 07:57:41;;;;;;;31.97;17.40;;;;;;;-0.08;100.00;100222.28;5030595;28;20052;-80
2022/11/20 08:00:10;;;;;;;29.67;16.73;;;;;;;-0.12;100.00;100226.53;5030687;28;20065;-78
2022/11/20 08:02:39;;;;;;;24.90;12.97;;;;;;;-0.13;100.00;100229.13;5043457;28;20063;-79
2022/11/20 08:05:06;;;;;;;27.40;14.33;;;;;;;-0.05;100.00;100220.59;5042274;28;20409;-78
2022/11/20 08:07:41;;;;;;;25.40;16.30;;;;;;;0.03;100.00;100225.91;5040085;28;20052;-80
2022/11/20 08:10:10;;;;;;;26.37;14.20;;;;;;;-0.05;100.00;100220.59;5062369;28;20041;-81
2022/11/20 08:15:34;;;;;;;26.70;14.53;;;;;;;-0.10;100.00;100218.75;5025996;28;20037;-79
2022/11/20 08:18:05;;;;;;;28.97;14.67;;;;;;;-0.02;100.00;100220.63;5038452;28;20560;-79
2022/11/20 08:20:53;;;;;;;25.80;13.47;;;;;;;-0.21;100.00;100215.13;5033331;28;20041;-80
2022/11/20 08:23:19;;;;;;;25.17;14.43;;;;;;;-0.16;100.00;100211.78;5057129;22;20040;-80
2022/11/20 08:25:49;;;;;;;28.27;15.10;;;;;;;-0.12;100.00;100208.34;5044509;28;20043;-80
2022/11/20 08:28:16;;;;;;;30.60;15.27;;;;;;;-0.08;100.00;100204.97;5061275;28;20036;-81
2022/11/20 08:30:48;;;;;;;27.53;14.27;;;;;;;-0.12;100.00;100204.88;5058283;28;20102;-80
2022/11/20 08:33:17;;;;;;;27.93;14.63;;;;;;;0.03;100.00;100205.13;5043900;28;20093;-82
2022/11/20 08:35:44;;;;;;;25.37;14.53;;;;;;;-0.02;100.00;100204.16;5057266;28;20139;-81
2022/11/20 08:38:11;;;;;;;26.07;14.47;;;;;;;-0.01;100.00;100205.91;5054604;28;20049;-82
2022/11/20 08:40:37;;;;;;;25.77;14.67;;;;;;;-0.05;100.00;100201.53;5046217;28;20036;-83
2022/11/20 08:43:07;;;;;;;26.23;14.03;;;;;;;-0.04;100.00;100198.97;5044929;28;20075;-82
2022/11/20 08:45:34;;;;;;;24.93;13.97;;;;;;;0.09;100.00;100199.16;5059649;28;20700;-82
2022/11/20 08:48:02;;;;;;;24.80;15.87;;;;;;;0.04;100.00;100200.81;5055455;28;20051;-83
2022/11/20 08:50:31;;;;;;;25.63;13.93;;;;;;;0.18;100.00;100204.47;5052385;28;20068;-82
2022/11/20 08:53:06;;;;;;;27.03;15.03;;;;;;;0.11;100.00;100202.66;5040283;28;20047;-82
2022/11/20 08:55:35;;;;;;;28.35;14.75;;;;;;;0.10;100.00;100200.91;5056622;28;20040;-80
2022/11/20 08:58:05;;;;;;;25.87;14.00;;;;;;;0.11;100.00;100203.50;5051324;28;21041;-79
2022/11/20 09:00:32;;;;;;;25.83;15.53;;;;;;;0.10;100.00;100206.09;5036245;28;20044;-79
2022/11/20 09:03:00;;;;;;;29.20;14.83;;;;;;;0.13;100.00;100195.75;5049602;28;20496;-81
2022/11/20 09:05:28;;;;;;;28.00;15.47;;;;;;;0.22;100.00;100196.72;5073331;28;20047;-81
2022/11/20 09:07:58;;;;;;;25.63;14.47;;;;;;;0.36;100.00;100190.88;5054907;28;20580;-80
2022/11/20 09:10:26;;;;;;;27.77;14.50;;;;;;;0.29;100.00;100195.09;5059154;28;20055;-80
2022/11/20 09:12:54;;;;;;;29.37;16.77;;;;;;;0.28;100.00;100196.81;5050717;28;20040;-80
2022/11/20 09:15:23;;;;;;;27.83;14.83;;;;;;;0.26;100.00;100188.16;5049830;28;20063;-81
2022/11/20 09:17:58;;;;;;;26.90;15.30;;;;;;;0.18;100.00;100199.28;5037934;28;20122;-81
2022/11/20 09:20:25;;;;;;;26.23;14.07;;;;;;;0.32;100.00;100192.53;5050638;28;20090;-80
2022/11/20 09:22:52;;;;;;;21.67;12.37;;;;;;;0.37;100.00;100197.81;5037887;28;20504;-80
2022/11/20 09:25:19;;;;;;;25.97;13.43;;;;;;;0.36;100.00;100199.53;5034729;28;20040;-80
2022/11/20 09:27:46;;;;;;;25.60;13.57;;;;;;;0.45;100.00;100196.19;5046380;28;20036;-79
2022/11/20 09:30:14;;;;;;;24.10;13.67;;;;;;;0.44;100.00;100197.91;5045933;28;20464;-81
2022/11/20 09:32:41;;;;;;;23.63;13.47;;;;;;;0.43;100.00;100198.75;5047559;28;20404;-82
2022/11/20 09:35:09;;;;;;;25.10;13.30;;;;;;;0.44;100.00;100189.25;5055474;28;20777;-82
2022/11/20 09:37:37;;;;;;;23.40;12.77;;;;;;;0.54;100.00;100193.69;5062081;28;20048;-79
2022/11/20 09:40:05;;;;;;;24.33;12.73;;;;;;;0.47;100.00;100186.66;5039453;28;20516;-81
2022/11/20 09:42:41;;;;;;;25.73;13.67;;;;;;;0.48;100.00;100189.28;5070920;28;20044;-80
2022/11/20 09:45:33;;;;;;;25.33;13.57;;;;;;;0.46;100.00;100190.13;5049752;28;20044;-80
2022/11/20 09:48:10;;;;;;;22.40;13.40;;;;;;;0.39;100.00;100185.69;5051884;28;20040;-80
2022/11/20 09:50:54;;;;;;;26.17;14.63;;;;;;;0.41;100.00;100182.25;5051854;28;20245;-81
2022/11/20 09:53:42;;;;;;;20.50;12.60;;;;;;;0.37;100.00;100183.09;5056052;28;20055;-81
2022/11/20 09:56:11;;;;;;;25.63;15.00;;;;;;;0.41;100.00;100171.84;5051753;28;20047;-80
2022/11/20 09:58:42;;;;;;;42.10;25.07;;;;;;;0.46;100.00;100175.41;5053015;28;20040;-80
2022/11/20 10:01:12;;;;;;;28.87;16.83;;;;;;;0.40;100.00;100170.13;5034600;28;20472;-81
2022/11/20 10:03:50;;;;;;;28.17;15.30;;;;;;;0.44;100.00;100171.06;5055169;28;20072;-81
2022/11/20 10:06:21;;;;;;;20.87;14.00;;;;;;;0.49;100.00;100175.44;5069169;28;20036;-79
2022/11/20 10:08:57;;;;;;;25.53;13.87;;;;;;;0.41;100.00;100169.25;5040375;28;20126;-80
2022/11/20 10:11:35;;;;;;;26.17;14.60;;;;;;;0.45;100.00;100171.06;5055337;28;20063;-78
2022/11/20 10:14:12;;;;;;;22.80;12.87;;;;;;;0.40;100.00;100164.91;5061644;28;20039;-81
2022/11/20 10:17:00;;;;;;;21.33;12.70;;;;;;;0.43;100.00;100162.38;5050565;28;20040;-80
2022/11/20 10:19:33;;;;;;;20.27;11.80;;;;;;;0.39;100.00;100164.91;5069326;28;20047;-80
2022/11/20 10:22:21;;;;;;;26.20;13.40;;;;;;;0.39;100.00;100160.59;5070359;28;20043;-80
2022/11/20 10:25:10;;;;;;;30.57;19.50;;;;;;;0.49;100.00;100172.81;5059760;28;20036;-80
2022/11/20 10:27:53;;;;;;;26.83;14.87;;;;;;;0.55;100.00;100151.25;5069035;28;20070;-80
2022/11/20 10:30:21;;;;;;;21.90;12.23;;;;;;;0.54;100.00;100157.31;5068745;28;20083;-80
2022/11/20 10:32:52;;;;;;;22.13;13.03;;;;;;;0.59;100.00;100163.44;5054341;28;20123;-80
2022/11/20 10:35:22;;;;;;;22.10;11.13;;;;;;;0.61;100.00;100158.25;5049438;28;20041;-79
2022/11/20 10:37:59;;;;;;;21.93;12.23;;;;;;;0.60;100.00;100157.38;5039317;28;20126;-79
2022/11/20 10:40:41;;;;;;;20.83;12.27;;;;;;;0.53;100.00;100156.44;5051443;28;20047;-81
2022/11/20 10:43:29;;;;;;;20.03;12.77;;;;;;;0.54;100.00;100145.19;5052154;28;20538;-80
2022/11/20 10:45:58;;;;;;;18.50;10.80;;;;;;;0.56;100.00;100148.66;5049047;28;20104;-80
2022/11/20 10:48:27;;;;;;;20.03;10.67;;;;;;;0.57;100.00;100147.81;5064452;28;20040;-78
2022/11/20 10:51:03;;;;;;;22.33;11.60;;;;;;;0.58;100.00;100146.06;5065232;28;20130;-80
2022/11/20 10:53:39;;;;;;;23.70;13.37;;;;;;;0.56;100.00;100145.19;5090417;28;20174;-81
2022/11/20 10:56:19;;;;;;;19.80;12.93;;;;;;;0.54;100.00;100147.78;5086016;28;20417;-79
2022/11/20 10:59:01;;;;;;;20.57;13.23;;;;;;;0.56;100.00;100146.06;5034373;28;20580;-80
2022/11/20 11:01:28;;;;;;;18.83;12.13;;;;;;;0.55;100.00;100138.25;5054671;28;20059;-79
2022/11/20 11:03:55;;;;;;;21.47;11.57;;;;;;;0.58;100.00;100135.69;5039355;28;20265;-79
2022/11/20 11:06:28;;;;;;;19.90;11.30;;;;;;;0.66;100.00;100136.63;5053904;28;20050;-80
2022/11/20 11:08:57;;;;;;;21.73;11.13;;;;;;;0.71;100.00;100136.69;5052455;28;20515;-81
2022/11/20 11:11:27;;;;;;;19.73;11.00;;;;;;;0.74;100.00;100137.59;5057962;28;20474;-80
2022/11/20 11:14:05;;;;;;;22.57;12.23;;;;;;;0.75;100.00;100141.06;5048386;28;20047;-80
2022/11/20 11:16:32;;;;;;;37.20;18.43;;;;;;;0.80;100.00;100140.28;5058870;28;20098;-80
2022/11/20 11:19:07;;;;;;;38.77;19.77;;;;;;;0.81;100.00;100135.94;5044035;28;20039;-81
2022/11/20 11:21:34;;;;;;;26.03;14.60;;;;;;;0.81;100.00;100138.53;5034330;28;20047;-79
2022/11/20 11:24:03;;;;;;;18.77;12.90;;;;;;;0.71;100.00;100128.91;5054109;28;20431;-78
2022/11/20 11:26:52;;;;;;;20.83;12.10;;;;;;;0.82;100.00;100133.34;5052188;28;20050;-81